Terminal Aerodrome Forecast
Issued by NWS

Home | Current Version | Previous Version | Text Only | Print | Product List | Glossary On
Versions: 1 2 3 4 5 6 7 8 9 10 11 12 13 14 15 16 17 18 19 20 21 22 23 24 25 26 27 28 29 30 31 32 33 34 35
786
FTUS43 KDVN 290820 AAC
TAFBRL
TAF AMD
KBRL 290820Z 2908/3006 VRB03KT P6SM BKN009
     FM291400 01007KT P6SM BKN015
     FM291600 04008KT P6SM BKN035
     FM300100 07012KT P6SM BKN050=

USA.gov is the U.S. government's official web portal to all federal, state and local government web resources and services.